Time;durP1;ratioP1;P1;durP2;ratioP2;P2;SDS_P1;SDS_P2;PMS_P1;PMS_P2;Temp;Humidity;BMP_temperature;BMP_pressure;BME280_temperature;BME280_humidity;BME280_pressure;Samples;Min_cycle;Max_cycle;Signal;HPM_P1;HPM_P2
2022/10/18 00:01:17;;;;;;;17.93;14.73;;;;;;;14.65;100.00;102422.31;5002081;28;20033;-89
2022/10/18 00:03:42;;;;;;;17.00;13.77;;;;;;;14.64;100.00;102420.63;5002093;28;20045;-90
2022/10/18 00:06:08;;;;;;;17.77;14.07;;;;;;;14.65;100.00;102422.31;5029084;28;20497;-90
2022/10/18 00:08:36;;;;;;;20.27;13.83;;;;;;;14.64;100.00;102417.91;5028006;28;20033;-89
2022/10/18 00:11:01;;;;;;;18.53;14.30;;;;;;;14.65;100.00;102416.88;5027783;28;20124;-89
2022/10/18 00:13:26;;;;;;;19.33;14.00;;;;;;;14.65;100.00;102409.50;5027957;28;20493;-89
2022/10/18 00:15:55;;;;;;;20.60;14.87;;;;;;;14.64;100.00;102417.91;5027240;28;20037;-88
2022/10/18 00:18:21;;;;;;;18.93;15.10;;;;;;;14.60;100.00;102413.84;5028363;28;20086;-88
2022/10/18 00:21:03;;;;;;;19.43;14.90;;;;;;;14.59;100.00;102402.13;5027481;28;20116;-88
2022/10/18 00:23:30;;;;;;;18.57;14.50;;;;;;;14.41;100.00;102383.53;5017119;28;20159;-89
2022/10/18 00:26:13;;;;;;;19.97;15.03;;;;;;;14.43;100.00;102396.94;5027201;28;20077;-88
2022/10/18 00:28:39;;;;;;;19.93;15.87;;;;;;;14.42;100.00;102400.75;5027280;28;20171;-89
2022/10/18 00:31:14;;;;;;;20.70;15.60;;;;;;;14.45;100.00;102411.25;5026622;28;20416;-89
2022/10/18 00:33:40;;;;;;;18.90;14.93;;;;;;;14.42;100.00;102411.66;5026414;28;20053;-89
2022/10/18 00:36:06;;;;;;;20.63;15.57;;;;;;;14.45;100.00;102405.78;5027163;28;20491;-89
2022/10/18 00:38:31;;;;;;;17.77;15.00;;;;;;;14.42;100.00;102411.66;5023643;28;20037;-88
2022/10/18 00:40:57;;;;;;;21.87;14.97;;;;;;;14.46;100.00;102418.38;5000646;28;20045;-88
2022/10/18 00:43:22;;;;;;;17.60;14.50;;;;;;;14.45;100.00;102397.59;5026793;28;20501;-88
2022/10/18 00:45:47;;;;;;;21.07;15.30;;;;;;;14.43;100.00;102405.13;5030731;28;20221;-88
2022/10/18 00:48:15;;;;;;;20.43;15.27;;;;;;;14.41;100.00;102404.50;5029813;28;20045;-89
2022/10/18 00:50:41;;;;;;;20.43;15.23;;;;;;;14.39;100.00;102406.56;5031747;28;20084;-89
2022/10/18 00:53:11;;;;;;;21.47;16.00;;;;;;;14.43;100.00;102413.31;5004658;28;20052;-89
2022/10/18 00:55:38;;;;;;;18.10;14.83;;;;;;;14.44;100.00;102409.56;5030671;28;20041;-90
2022/10/18 00:58:04;;;;;;;20.17;15.37;;;;;;;14.45;100.00;102422.16;5005910;28;20106;-89
2022/10/18 01:00:30;;;;;;;22.33;15.57;;;;;;;14.45;100.00;102411.25;5006732;28;20477;-90
2022/10/18 01:02:57;;;;;;;20.07;15.77;;;;;;;14.42;100.00;102417.94;5031112;28;20037;-89
2022/10/18 01:05:24;;;;;;;20.60;14.87;;;;;;;14.28;100.00;102424.31;5032413;28;20049;-90
2022/10/18 01:08:22;;;;;;;20.10;16.23;;;;;;;14.43;100.00;102429.69;5010897;28;20032;-89
2022/10/18 01:10:50;;;;;;;21.47;15.97;;;;;;;14.42;100.00;102442.47;5031366;28;20052;-90
2022/10/18 01:13:16;;;;;;;23.07;15.77;;;;;;;14.31;100.00;102437.59;5031499;28;20112;-89
2022/10/18 01:15:55;;;;;;;20.03;15.40;;;;;;;14.38;100.00;102429.44;5031164;28;20122;-89
2022/10/18 01:18:40;;;;;;;18.47;15.70;;;;;;;14.37;100.00;102425.03;5028163;28;20044;-90
2022/10/18 01:21:08;;;;;;;23.48;15.07;;;;;;;14.38;100.00;102426.72;5030969;28;20040;-90
2022/10/18 01:23:52;;;;;;;18.73;15.07;;;;;;;14.43;100.00;102427.81;5031205;28;20607;-90
2022/10/18 01:26:24;;;;;;;19.33;14.82;;;;;;;14.34;100.00;102424.38;5029953;28;20041;-90
2022/10/18 01:29:22;;;;;;;18.77;13.67;;;;;;;14.44;100.00;102431.38;5031462;28;20079;-89
2022/10/18 01:32:00;;;;;;;19.07;14.57;;;;;;;14.38;100.00;102432.19;5031276;28;20028;-89
2022/10/18 01:34:31;;;;;;;20.17;15.27;;;;;;;14.25;100.00;102420.13;5030867;28;20404;-90
2022/10/18 01:37:00;;;;;;;19.10;14.40;;;;;;;14.32;100.00;102436.50;5030967;28;20342;-90
2022/10/18 01:39:30;;;;;;;19.27;14.90;;;;;;;14.29;100.00;102428.75;5029384;28;20159;-90
2022/10/18 01:41:59;;;;;;;19.60;15.13;;;;;;;14.29;100.00;102426.88;5030468;28;20072;-91
2022/10/18 01:44:28;;;;;;;19.07;15.07;;;;;;;14.31;100.00;102429.41;5030814;28;20037;-91
2022/10/18 01:46:56;;;;;;;18.17;14.03;;;;;;;14.27;100.00;102431.66;5030464;28;20033;-89
2022/10/18 01:49:23;;;;;;;18.73;14.17;;;;;;;14.30;100.00;102435.88;5012684;28;20047;-90
2022/10/18 01:51:48;;;;;;;17.00;14.33;;;;;;;14.31;100.00;102438.41;5027926;28;20463;-90
2022/10/18 01:54:20;;;;;;;18.80;14.67;;;;;;;14.31;100.00;102438.41;5005912;28;20045;-90
2022/10/18 01:57:14;;;;;;;19.33;15.13;;;;;;;14.29;100.00;102435.06;5030609;28;20044;-91
2022/10/18 02:00:01;;;;;;;16.83;14.57;;;;;;;14.28;100.00;102433.38;5030559;28;20584;-91
2022/10/18 02:02:38;;;;;;;21.83;15.00;;;;;;;14.24;100.00;102429.34;5030273;28;20029;-90
2022/10/18 02:05:21;;;;;;;19.87;15.17;;;;;;;14.22;100.00;102430.59;5030654;28;20033;-90
2022/10/18 02:07:59;;;;;;;19.37;15.07;;;;;;;14.16;100.00;102443.13;5030238;28;20029;-89
2022/10/18 02:10:35;;;;;;;20.07;15.97;;;;;;;14.18;100.00;102446.47;5031559;28;20044;-90
2022/10/18 02:13:01;;;;;;;20.43;16.37;;;;;;;14.14;100.00;102435.16;5030250;28;20040;-89
2022/10/18 02:15:37;;;;;;;19.60;16.67;;;;;;;14.18;100.00;102432.84;5028372;28;20052;-90
2022/10/18 02:18:11;;;;;;;21.37;17.20;;;;;;;14.15;100.00;102436.81;5029668;28;20066;-90
2022/10/18 02:20:37;;;;;;;;;;;;;;;14.31;100.00;102437.59;5031301;28;20058;-89
2022/10/18 02:23:06;;;;;;;20.70;16.20;;;;;;;14.14;100.00;102421.50;5029189;28;19925;-91
2022/10/18 02:25:33;;;;;;;20.53;16.13;;;;;;;14.04;100.00;102426.44;5030074;28;20048;-90
2022/10/18 02:28:00;;;;;;;22.97;16.70;;;;;;;13.99;100.00;102429.78;5029009;28;20051;-90
2022/10/18 02:30:37;;;;;;;20.87;15.93;;;;;;;13.92;100.00;102420.69;5030337;28;20032;-89
2022/10/18 02:33:18;;;;;;;20.57;15.57;;;;;;;14.05;100.00;102438.19;5020774;28;20128;-89
2022/10/18 02:35:49;;;;;;;18.63;15.13;;;;;;;13.97;100.00;102431.00;5004850;28;20127;-89
2022/10/18 02:38:17;;;;;;;21.80;15.77;;;;;;;13.96;100.00;102435.59;5029134;28;20052;-89
2022/10/18 02:40:43;;;;;;;19.13;16.07;;;;;;;13.99;100.00;102437.09;5029571;28;20439;-89
2022/10/18 02:43:08;;;;;;;19.53;15.50;;;;;;;13.89;100.00;102429.25;5030062;28;20053;-89
2022/10/18 02:45:34;;;;;;;21.00;16.60;;;;;;;13.93;100.00;102438.72;4978116;28;20500;-90
2022/10/18 02:47:59;;;;;;;20.03;16.43;;;;;;;13.97;100.00;102437.28;5029621;28;20436;-89
2022/10/18 02:50:25;;;;;;;19.23;17.03;;;;;;;13.90;100.00;102422.78;5030021;28;20392;-88
2022/10/18 02:52:50;;;;;;;22.13;17.67;;;;;;;13.91;100.00;102439.94;5029567;28;20037;-89
2022/10/18 02:55:16;;;;;;;21.77;16.80;;;;;;;13.80;100.00;102444.03;5029871;28;20420;-89
2022/10/18 02:57:41;;;;;;;22.47;17.27;;;;;;;13.91;100.00;102453.56;5029414;28;20048;-90
2022/10/18 03:00:08;;;;;;;22.03;18.67;;;;;;;13.93;100.00;102449.63;5028885;28;20378;-90
2022/10/18 03:02:33;;;;;;;21.33;17.80;;;;;;;13.87;100.00;102438.66;5029344;28;20115;-89
2022/10/18 03:04:59;;;;;;;21.60;18.00;;;;;;;13.78;100.00;102427.88;5029399;28;20406;-90
2022/10/18 03:07:24;;;;;;;22.63;18.33;;;;;;;13.79;100.00;102429.56;5011602;28;20119;-88
2022/10/18 03:09:50;;;;;;;21.77;18.60;;;;;;;13.93;100.00;102446.88;5029583;28;20036;-88
2022/10/18 03:12:15;;;;;;;20.47;18.27;;;;;;;13.96;100.00;102456.56;5029407;28;20369;-88
2022/10/18 03:14:41;;;;;;;21.00;18.27;;;;;;;13.94;100.00;102458.63;5029658;28;20075;-88
2022/10/18 03:17:06;;;;;;;23.57;19.30;;;;;;;13.99;100.00;102457.03;5003656;28;20095;-88
2022/10/18 03:19:32;;;;;;;21.43;17.83;;;;;;;13.91;100.00;102450.84;5029375;28;20635;-89
2022/10/18 03:21:57;;;;;;;21.17;18.20;;;;;;;13.93;100.00;102446.06;5004295;28;20037;-88
2022/10/18 03:24:23;;;;;;;22.30;19.10;;;;;;;13.96;100.00;102456.56;5005004;28;20037;-89
2022/10/18 03:26:48;;;;;;;22.87;18.43;;;;;;;13.89;100.00;102448.31;5029419;28;20049;-87
2022/10/18 03:29:13;;;;;;;23.53;18.90;;;;;;;13.93;100.00;102452.34;5004258;28;20034;-87
2022/10/18 03:31:39;;;;;;;23.57;18.53;;;;;;;13.98;100.00;102454.47;5031532;28;20032;-87
2022/10/18 03:34:04;;;;;;;22.23;19.17;;;;;;;13.94;100.00;102447.72;5006286;28;20144;-87
2022/10/18 03:36:30;;;;;;;22.90;19.80;;;;;;;13.92;100.00;102455.25;5033216;28;20124;-87
2022/10/18 03:38:58;;;;;;;25.53;19.63;;;;;;;13.89;100.00;102455.66;5032718;28;20033;-87
2022/10/18 03:41:23;;;;;;;22.53;18.43;;;;;;;13.83;100.00;102455.41;5033103;28;20049;-87
2022/10/18 03:43:49;;;;;;;20.27;17.47;;;;;;;13.85;100.00;102445.13;5032487;28;20068;-87
2022/10/18 03:46:14;;;;;;;24.70;19.37;;;;;;;13.86;100.00;102456.91;5033128;28;20120;-87
2022/10/18 03:48:39;;;;;;;24.80;21.63;;;;;;;13.89;100.00;102459.22;5031048;28;20032;-87
2022/10/18 03:51:05;;;;;;;24.23;19.37;;;;;;;13.88;100.00;102453.97;5008866;28;20393;-87
2022/10/18 03:53:30;;;;;;;25.33;21.30;;;;;;;13.88;100.00;102448.53;5032536;28;20362;-87
2022/10/18 03:55:55;;;;;;;31.07;24.47;;;;;;;13.88;100.00;102441.19;5033865;28;20067;-89
2022/10/18 03:58:21;;;;;;;31.33;24.57;;;;;;;13.90;100.00;102450.00;5032303;28;20029;-89
2022/10/18 04:00:54;;;;;;;28.73;23.70;;;;;;;13.91;100.00;102442.66;5033306;28;20032;-89
2022/10/18 04:03:21;;;;;;;31.07;24.83;;;;;;;13.87;100.00;102428.63;5030505;28;20159;-89
2022/10/18 04:05:47;;;;;;;31.70;25.23;;;;;;;13.86;100.00;102426.91;5024675;28;20037;-88
2022/10/18 04:08:13;;;;;;;30.20;24.33;;;;;;;13.89;100.00;102431.97;5032201;28;20040;-88
2022/10/18 04:10:39;;;;;;;29.43;22.57;;;;;;;13.82;100.00;102433.81;5033061;28;20774;-88
2022/10/18 04:13:06;;;;;;;33.83;28.17;;;;;;;13.94;100.00;102437.69;5031596;28;20040;-88
2022/10/18 04:15:31;;;;;;;33.57;25.37;;;;;;;13.80;100.00;102424.97;5032211;28;20128;-88
2022/10/18 04:17:57;;;;;;;41.17;30.37;;;;;;;13.89;100.00;102431.16;5029821;28;20033;-88
2022/10/18 04:20:23;;;;;;;41.27;29.87;;;;;;;13.82;100.00;102422.91;5032282;28;20135;-88
2022/10/18 04:22:49;;;;;;;41.33;29.30;;;;;;;13.76;100.00;102424.53;5032275;28;20170;-88
2022/10/18 04:25:21;;;;;;;95.83;31.27;;;;;;;13.80;100.00;102441.31;5032366;28;20038;-88
2022/10/18 04:27:47;;;;;;;36.40;27.33;;;;;;;13.84;100.00;102442.59;5032161;28;20167;-87
2022/10/18 04:30:12;;;;;;;41.33;27.70;;;;;;;13.84;100.00;102446.19;5006460;28;20045;-88
2022/10/18 04:32:38;;;;;;;53.67;32.83;;;;;;;13.87;100.00;102447.69;5032358;28;20036;-88
2022/10/18 04:35:04;;;;;;;115.07;34.53;;;;;;;13.78;100.00;102446.13;5032084;28;20148;-88
2022/10/18 04:37:29;;;;;;;52.33;31.83;;;;;;;13.77;100.00;102447.16;5031946;28;20119;-88
2022/10/18 04:39:58;;;;;;;63.17;32.70;;;;;;;13.90;100.00;102465.50;5032489;28;20040;-88
2022/10/18 04:42:23;;;;;;;83.37;33.00;;;;;;;13.82;100.00;102450.97;5031134;28;20046;-87
2022/10/18 04:44:49;;;;;;;50.23;31.20;;;;;;;13.82;100.00;102458.31;5031277;28;20065;-87
2022/10/18 04:47:15;;;;;;;84.97;34.20;;;;;;;13.85;100.00;102456.03;5032531;28;20097;-87
2022/10/18 04:49:40;;;;;;;98.27;35.33;;;;;;;13.84;100.00;102456.22;5022973;28;20037;-87
2022/10/18 04:52:06;;;;;;;80.40;33.80;;;;;;;13.83;100.00;102452.66;5031369;28;20120;-87
2022/10/18 04:54:31;;;;;;;44.93;30.97;;;;;;;13.84;100.00;102442.59;5030550;28;20037;-88
2022/10/18 04:56:57;;;;;;;174.40;41.13;;;;;;;13.82;100.00;102447.41;5031857;28;20404;-88
2022/10/18 04:59:22;;;;;;;93.50;36.13;;;;;;;13.76;100.00;102446.31;5031473;28;20035;-88
2022/10/18 05:01:47;;;;;;;56.10;32.90;;;;;;;13.76;100.00;102442.72;5029704;28;20041;-87
2022/10/18 05:04:13;;;;;;;63.97;33.43;;;;;;;13.78;100.00;102448.84;5006405;28;20527;-87
2022/10/18 05:06:38;;;;;;;42.10;33.30;;;;;;;13.81;100.00;102446.56;5031685;28;20037;-87
2022/10/18 05:09:04;;;;;;;50.97;34.27;;;;;;;13.78;100.00;102451.56;5022605;28;20041;-87
2022/10/18 05:11:29;;;;;;;136.67;39.13;;;;;;;13.64;100.00;102465.03;5031557;28;20048;-87
2022/10/18 05:13:54;;;;;;;104.10;36.43;;;;;;;13.69;100.00;102472.63;5004762;28;20026;-87
2022/10/18 05:16:20;;;;;;;242.17;40.57;;;;;;;13.70;100.00;102473.50;5030785;28;20047;-87
2022/10/18 05:18:45;;;;;;;195.83;40.50;;;;;;;13.68;100.00;102476.38;5005933;28;20060;-87
2022/10/18 05:21:11;;;;;;;95.57;36.17;;;;;;;13.74;100.00;102469.34;5031382;28;20037;-87
2022/10/18 05:23:37;;;;;;;95.67;37.03;;;;;;;13.67;100.00;102474.72;5030377;28;20033;-88
2022/10/18 05:26:06;;;;;;;216.57;42.57;;;;;;;13.62;100.00;102479.88;5031275;28;20466;-87
2022/10/18 05:28:32;;;;;;;105.40;36.33;;;;;;;13.61;100.00;102470.88;5030576;28;20037;-87
2022/10/18 05:31:05;;;;;;;100.37;36.07;;;;;;;13.70;100.00;102473.50;5030293;28;20809;-87
2022/10/18 05:33:31;;;;;;;293.27;43.93;;;;;;;13.55;100.00;102476.25;5003933;28;20438;-88
2022/10/18 05:35:58;;;;;;;105.33;37.60;;;;;;;13.46;100.00;102479.09;5006975;28;20129;-87
2022/10/18 05:38:24;;;;;;;55.13;34.60;;;;;;;13.42;100.00;102476.94;5030616;28;20080;-87
2022/10/18 05:40:49;;;;;;;79.37;37.43;;;;;;;13.37;100.00;102491.13;5030795;28;20116;-88
2022/10/18 05:43:21;;;;;;;47.20;33.10;;;;;;;13.38;100.00;102481.06;5029142;28;20033;-87
2022/10/18 05:45:50;;;;;;;61.80;34.57;;;;;;;13.40;100.00;102479.00;5030134;28;20037;-87
2022/10/18 05:48:16;;;;;;;137.20;37.30;;;;;;;13.38;100.00;102479.22;4990189;28;20665;-87
2022/10/18 05:50:44;;;;;;;112.30;38.00;;;;;;;13.38;100.00;102472.91;5012841;28;20132;-89
2022/10/18 05:53:09;;;;;;;131.47;36.20;;;;;;;13.36;100.00;102478.53;5005568;28;20055;-89
2022/10/18 05:55:38;;;;;;;79.80;33.40;;;;;;;13.34;100.00;102484.16;5028236;28;21848;-89
2022/10/18 05:58:03;;;;;;;224.13;39.13;;;;;;;13.23;100.00;102471.03;5029088;28;20064;-88
2022/10/18 06:00:29;;;;;;;116.17;34.40;;;;;;;13.14;100.00;102483.06;5030755;28;20112;-89
2022/10/18 06:02:54;;;;;;;84.13;31.53;;;;;;;13.14;100.00;102485.78;5029885;28;20033;-88
2022/10/18 06:05:20;;;;;;;192.23;35.00;;;;;;;13.10;100.00;102489.91;5030558;28;20441;-88
2022/10/18 06:07:45;;;;;;;206.30;34.77;;;;;;;13.11;100.00;102487.00;5030002;28;20056;-89
2022/10/18 06:10:10;;;;;;;132.23;31.77;;;;;;;13.12;100.00;102495.97;5029328;28;20037;-88
2022/10/18 06:12:36;;;;;;;94.67;30.17;;;;;;;13.07;100.00;102482.09;5030561;28;20128;-87
2022/10/18 06:15:01;;;;;;;111.07;30.57;;;;;;;13.05;100.00;102481.44;5012228;28;20068;-89
2022/10/18 06:17:27;;;;;;;66.97;30.40;;;;;;;13.06;100.00;102488.59;5034674;28;20090;-88
2022/10/18 06:19:52;;;;;;;101.60;32.70;;;;;;;13.04;100.00;102494.22;5042951;28;20083;-89
2022/10/18 06:22:17;;;;;;;72.00;30.20;;;;;;;13.10;100.00;102493.44;5035257;28;20056;-88
2022/10/18 06:24:43;;;;;;;175.93;32.63;;;;;;;12.92;100.00;102499.28;5044606;28;20048;-89
2022/10/18 06:27:08;;;;;;;123.03;31.10;;;;;;;12.94;100.00;102496.38;5034658;28;20039;-88
2022/10/18 06:29:38;;;;;;;126.33;30.77;;;;;;;12.92;100.00;102499.28;5008960;28;20036;-88
2022/10/18 06:32:05;;;;;;;87.50;29.33;;;;;;;12.90;100.00;102504.06;5028807;28;20036;-88
2022/10/18 06:34:30;;;;;;;108.80;30.13;;;;;;;12.84;100.00;102512.97;5035238;28;20063;-86
2022/10/18 06:37:02;;;;;;;126.23;32.73;;;;;;;12.80;100.00;102517.09;5049908;28;20029;-88
2022/10/18 06:39:28;;;;;;;96.60;30.10;;;;;;;12.78;100.00;102520.00;5045982;28;20115;-88
2022/10/18 06:41:53;;;;;;;113.07;32.83;;;;;;;12.78;100.00;102525.44;5050139;28;20111;-89
2022/10/18 06:44:20;;;;;;;94.70;34.20;;;;;;;12.77;100.00;102536.47;5038731;28;20033;-88
2022/10/18 06:46:46;;;;;;;98.77;34.77;;;;;;;12.70;100.00;102535.53;5030026;28;20183;-88
2022/10/18 06:49:13;;;;;;;61.00;31.83;;;;;;;12.69;100.00;102542.00;5029476;28;20549;-87
2022/10/18 06:51:43;;;;;;;51.93;33.07;;;;;;;12.71;100.00;102534.53;5029076;28;20044;-88
2022/10/18 06:54:09;;;;;;;95.13;36.23;;;;;;;12.66;100.00;102543.22;5026796;28;20115;-88
2022/10/18 06:56:35;;;;;;;85.70;33.73;;;;;;;12.64;100.00;102537.97;5026856;28;20636;-88
2022/10/18 06:59:00;;;;;;;57.10;31.67;;;;;;;12.74;100.00;102543.16;5027154;28;20091;-88
2022/10/18 07:01:27;;;;;;;69.43;32.93;;;;;;;12.73;100.00;102554.19;5025929;28;20229;-88
2022/10/18 07:03:54;;;;;;;34.10;30.50;;;;;;;12.71;100.00;102550.84;5026654;28;21463;-88
2022/10/18 07:06:21;;;;;;;63.37;29.47;;;;;;;12.77;100.00;102558.25;5028144;28;20155;-88
2022/10/18 07:08:48;;;;;;;56.53;28.17;;;;;;;12.70;100.00;102552.72;5031579;28;20048;-88
2022/10/18 07:11:25;;;;;;;39.80;27.63;;;;;;;12.87;100.00;102558.84;5031278;28;20156;-88
2022/10/18 07:13:53;;;;;;;46.27;27.40;;;;;;;12.93;100.00;102565.41;5030645;28;20025;-88
2022/10/18 07:16:19;;;;;;;38.33;25.20;;;;;;;12.95;100.00;102566.91;5030985;28;20207;-89
2022/10/18 07:18:50;;;;;;;75.30;24.33;;;;;;;12.94;100.00;102586.16;5008887;28;20032;-88
2022/10/18 07:21:21;;;;;;;90.90;23.23;;;;;;;12.73;100.00;102575.97;5030589;28;20037;-89
2022/10/18 07:23:47;;;;;;;47.87;23.77;;;;;;;12.90;100.00;102585.66;5030834;28;20159;-88
2022/10/18 07:26:22;;;;;;;60.87;22.27;;;;;;;12.86;100.00;102584.34;5031095;28;20044;-88
2022/10/18 07:28:54;;;;;;;68.83;22.87;;;;;;;12.83;100.00;102571.94;5029553;28;20424;-88
2022/10/18 07:31:19;;;;;;;34.50;23.37;;;;;;;12.97;100.00;102588.50;5030708;28;20029;-88
2022/10/18 07:33:45;;;;;;;46.43;21.90;;;;;;;12.92;100.00;102591.78;5029996;28;20385;-88
2022/10/18 07:36:11;;;;;;;61.90;21.80;;;;;;;12.84;100.00;102608.19;5019178;28;20583;-88
2022/10/18 07:38:38;;;;;;;45.57;22.03;;;;;;;12.89;100.00;102611.19;5019918;28;20033;-88
2022/10/18 07:41:05;;;;;;;53.20;23.33;;;;;;;12.84;100.00;102613.63;5028865;28;20052;-89
2022/10/18 07:43:31;;;;;;;45.17;23.33;;;;;;;12.85;100.00;102626.16;5028644;28;20302;-88
2022/10/18 07:45:59;;;;;;;33.83;22.27;;;;;;;12.95;100.00;102621.31;5030469;28;20041;-88
2022/10/18 07:48:25;;;;;;;43.23;22.27;;;;;;;12.90;100.00;102626.47;5030559;28;20863;-88
2022/10/18 07:50:51;;;;;;;47.73;23.90;;;;;;;12.93;100.00;102630.69;5029634;28;20048;-90
2022/10/18 07:53:16;;;;;;;54.77;24.70;;;;;;;12.79;100.00;102605.16;5030869;28;20045;-89
2022/10/18 07:55:43;;;;;;;36.60;23.87;;;;;;;13.03;100.00;102630.44;5029911;28;20041;-89
2022/10/18 07:58:09;;;;;;;34.80;24.67;;;;;;;13.05;100.00;102633.84;5029463;28;20041;-89
2022/10/18 08:00:34;;;;;;;47.37;25.30;;;;;;;13.07;100.00;102640.78;5029889;28;20047;-89
2022/10/18 08:03:00;;;;;;;34.37;23.87;;;;;;;13.17;100.00;102644.06;5007796;28;20075;-89
2022/10/18 08:05:26;;;;;;;42.77;24.23;;;;;;;13.13;100.00;102648.19;5029556;28;20690;-89
2022/10/18 08:07:53;;;;;;;34.93;22.80;;;;;;;13.16;100.00;102646.97;5029899;28;20076;-89
2022/10/18 08:10:20;;;;;;;29.70;22.30;;;;;;;13.16;100.00;102642.41;5030175;28;20107;-90
2022/10/18 08:12:45;;;;;;;39.43;23.23;;;;;;;13.17;100.00;102651.41;5011985;28;20043;-90
2022/10/18 08:15:11;;;;;;;42.77;23.87;;;;;;;13.16;100.00;102663.31;5029349;28;21380;-90
2022/10/18 08:17:36;;;;;;;38.33;24.63;;;;;;;13.22;100.00;102665.31;5029739;28;20060;-89
2022/10/18 08:20:02;;;;;;;33.60;21.70;;;;;;;13.29;100.00;102668.97;5027631;28;20083;-89
2022/10/18 08:22:28;;;;;;;36.90;23.73;;;;;;;13.24;100.00;102667.84;5029830;28;20328;-90
2022/10/18 08:24:53;;;;;;;32.50;22.63;;;;;;;13.27;100.00;102665.59;5002746;28;20045;-89
2022/10/18 08:27:18;;;;;;;32.90;23.60;;;;;;;13.28;100.00;102653.66;5029756;28;20045;-89
2022/10/18 08:29:44;;;;;;;36.20;23.97;;;;;;;13.30;100.00;102659.78;5029174;28;20102;-90
2022/10/18 08:32:09;;;;;;;33.40;25.00;;;;;;;13.51;100.00;102669.13;5029219;28;20143;-87
2022/10/18 08:34:41;;;;;;;32.03;23.97;;;;;;;13.60;100.00;102665.28;5029426;28;20139;-90
2022/10/18 08:37:06;;;;;;;30.50;22.10;;;;;;;13.61;100.00;102675.16;5029353;28;20036;-90
2022/10/18 08:39:31;;;;;;;31.37;21.70;;;;;;;13.62;100.00;102674.09;5029071;28;20543;-90
2022/10/18 08:42:22;;;;;;;30.17;20.57;;;;;;;13.78;100.00;102673.06;5006929;28;20502;-89
2022/10/18 08:44:49;;;;;;;26.20;19.43;;;;;;;14.00;100.00;102687.59;5029466;28;20044;-89
2022/10/18 08:47:18;;;;;;;46.70;32.87;;;;;;;13.92;100.00;102690.44;5028918;28;20377;-90
2022/10/18 08:49:48;;;;;;;35.63;24.67;;;;;;;14.04;100.00;102681.81;5029393;28;20088;-90
2022/10/18 08:52:25;;;;;;;29.27;21.37;;;;;;;14.33;100.00;102687.19;5029497;28;20060;-90
2022/10/18 08:55:11;;;;;;;27.97;18.63;;;;;;;14.74;100.00;102684.91;5028421;28;20052;-89
2022/10/18 08:57:36;;;;;;;24.80;18.23;;;;;;;15.08;100.00;102680.59;5029681;28;20148;-90
2022/10/18 09:00:15;;;;;;;25.47;18.83;;;;;;;15.58;100.00;102689.59;5027551;28;20491;-89
2022/10/18 09:02:40;;;;;;;25.37;19.30;;;;;;;15.44;100.00;102682.38;5029096;28;20036;-90
2022/10/18 09:05:16;;;;;;;22.83;16.70;;;;;;;15.88;100.00;102692.09;5023438;28;20037;-91
2022/10/18 09:07:50;;;;;;;22.60;16.03;;;;;;;15.96;100.00;102694.66;5028799;28;20480;-90
2022/10/18 09:10:37;;;;;;;23.15;17.88;;;;;;;16.25;100.00;102698.19;5006321;28;20477;-90
2022/10/18 09:13:46;;;;;;;23.95;16.70;;;;;;;16.93;100.00;102708.25;5028834;28;20385;-91
2022/10/18 09:16:25;;;;;;;20.83;14.27;;;;;;;16.74;100.00;102709.91;5027777;28;20142;-91
2022/10/18 09:19:12;;;;;;;22.05;13.75;;;;;;;16.93;100.00;102701.94;5029423;28;20032;-90
2022/10/18 09:22:11;;;;;;;19.35;13.32;;;;;;;17.38;100.00;102700.25;5028952;28;20469;-91
2022/10/18 09:24:56;;;;;;;22.27;12.35;;;;;;;17.70;100.00;102699.56;4999453;28;20053;-91
2022/10/18 09:27:34;;;;;;;18.60;11.95;;;;;;;17.49;99.74;102695.19;5028533;28;20482;-88
2022/10/18 09:30:18;;;;;;;19.58;11.27;;;;;;;17.78;97.85;102696.59;5017572;28;20518;-89
2022/10/18 09:33:08;;;;;;;17.45;11.68;;;;;;;18.03;100.00;102696.75;5027850;28;20053;-88
2022/10/18 09:35:54;;;;;;;20.60;11.55;;;;;;;17.95;98.17;102709.84;5028040;28;20057;-88
2022/10/18 09:38:25;;;;;;;18.15;11.27;;;;;;;17.58;94.84;102704.84;5028416;28;20076;-89
2022/10/18 09:40:55;;;;;;;17.42;10.80;;;;;;;17.45;96.76;102699.38;5028103;28;20404;-89
2022/10/18 09:43:25;;;;;;;18.17;9.82;;;;;;;17.78;96.68;102698.50;5028790;28;20086;-89
2022/10/18 09:45:53;;;;;;;17.70;10.18;;;;;;;17.81;94.33;102689.84;5027579;28;20036;-88
2022/10/18 09:48:45;;;;;;;19.52;10.15;;;;;;;17.66;93.17;102693.66;5028001;28;20179;-89
2022/10/18 09:51:16;;;;;;;16.45;10.00;;;;;;;17.78;90.08;102703.97;5027684;28;20061;-90
2022/10/18 09:53:56;;;;;;;18.33;10.45;;;;;;;17.98;90.88;102699.31;5028354;28;20029;-89
2022/10/18 09:56:24;;;;;;;16.00;8.52;;;;;;;18.49;92.57;102699.50;5028277;28;20385;-89
2022/10/18 09:58:50;;;;;;;14.88;7.50;;;;;;;18.86;85.40;102708.75;5027405;28;20124;-89
2022/10/18 10:01:34;;;;;;;14.02;8.82;;;;;;;18.92;87.57;102708.94;5001540;28;20480;-90
2022/10/18 10:04:00;;;;;;;14.82;8.02;;;;;;;18.51;81.91;102702.88;5027942;28;20029;-89
2022/10/18 10:06:31;;;;;;;18.65;8.00;;;;;;;18.47;85.21;102698.88;5026557;28;20250;-89
2022/10/18 10:09:06;;;;;;;13.43;6.78;;;;;;;18.41;81.72;102697.00;5005568;28;20465;-89
2022/10/18 10:11:35;;;;;;;13.23;7.10;;;;;;;18.70;83.64;102701.06;5027678;28;20033;-89
2022/10/18 10:14:24;;;;;;;15.98;6.80;;;;;;;19.20;82.57;102708.50;5026825;28;20032;-90
2022/10/18 10:17:02;;;;;;;16.05;7.05;;;;;;;19.00;81.29;102706.78;5027239;28;20040;-89
2022/10/18 10:19:35;;;;;;;15.23;7.20;;;;;;;18.45;77.58;102696.34;5027807;28;20033;-89
2022/10/18 10:22:09;;;;;;;16.50;7.57;;;;;;;18.74;81.87;102702.31;5009350;28;20120;-89
2022/10/18 10:24:43;;;;;;;;;;;;;;;19.01;78.00;102716.72;5028112;28;20033;-90
2022/10/18 10:27:28;;;;;;;13.70;6.57;;;;;;;18.59;79.61;102709.97;5027255;28;20297;-90
2022/10/18 10:29:56;;;;;;;12.82;5.80;;;;;;;19.15;78.14;102714.69;5000265;28;20494;-88
2022/10/18 10:32:24;;;;;;;13.23;5.82;;;;;;;19.11;76.52;102718.97;5027331;28;20538;-89
2022/10/18 10:34:50;;;;;;;14.38;6.25;;;;;;;18.70;75.12;102715.63;5027256;28;20058;-88
2022/10/18 10:37:36;;;;;;;14.80;6.53;;;;;;;19.05;76.47;102730.81;5009657;28;20389;-89
2022/10/18 10:40:14;;;;;;;13.63;6.38;;;;;;;18.60;78.04;102728.97;5027196;28;20041;-89
2022/10/18 10:42:55;;;;;;;11.73;7.43;;;;;;;18.63;81.97;102722.22;5027296;28;20025;-89
2022/10/18 10:45:23;;;;;;;13.60;7.03;;;;;;;18.42;75.50;102728.88;5027188;28;20049;-89
2022/10/18 10:47:51;;;;;;;12.45;7.15;;;;;;;18.38;74.58;102734.78;5027244;28;20044;-88
2022/10/18 10:50:25;;;;;;;14.70;7.68;;;;;;;19.01;77.59;102735.94;5026553;28;20036;-89
2022/10/18 10:52:52;;;;;;;13.27;6.68;;;;;;;19.27;76.33;102742.28;5027795;28;20713;-89
2022/10/18 10:55:21;;;;;;;13.27;6.82;;;;;;;19.31;73.37;102740.78;5027031;28;20095;-90
2022/10/18 10:57:50;;;;;;;16.05;7.55;;;;;;;19.20;73.91;102738.75;5027208;28;20502;-89
2022/10/18 11:00:38;;;;;;;14.23;6.95;;;;;;;19.23;76.70;102738.31;5026892;28;20064;-89
2022/10/18 11:03:09;;;;;;;15.10;6.13;;;;;;;18.94;70.75;102740.63;5027102;28;20035;-89
2022/10/18 11:05:51;;;;;;;16.05;6.35;;;;;;;19.26;72.70;102739.75;5027210;28;20083;-89
2022/10/18 11:08:21;;;;;;;11.05;5.97;;;;;;;19.30;69.21;102741.84;5025190;28;20040;-89
2022/10/18 11:11:12;;;;;;;12.65;5.72;;;;;;;19.47;70.82;102749.50;5026595;28;20207;-89
2022/10/18 11:13:49;;;;;;;13.43;4.93;;;;;;;19.72;68.89;102750.31;5027204;28;20055;-90
2022/10/18 11:16:28;;;;;;;15.55;5.40;;;;;;;19.50;69.26;102757.31;5027109;28;20068;-89